createdAt,value
2022-12-26T00:01:48.397Z,16.57
2022-12-26T00:04:48.914Z,16.97
2022-12-26T00:07:08.053Z,17.60
2022-12-26T00:09:36.659Z,19.13
2022-12-26T00:12:06.451Z,17.50
2022-12-26T00:14:35.541Z,16.87
2022-12-26T00:17:03.902Z,20.13
2022-12-26T00:19:33.150Z,21.30
2022-12-26T00:22:02.096Z,17.43
2022-12-26T00:24:32.319Z,21.00
2022-12-26T00:27:01.156Z,21.57
2022-12-26T00:29:30.998Z,23.23
2022-12-26T00:32:00.407Z,22.20
2022-12-26T00:34:29.993Z,26.07
2022-12-26T00:36:59.178Z,22.27
2022-12-26T00:39:28.216Z,23.80
2022-12-26T00:41:58.159Z,26.87
2022-12-26T00:44:27.180Z,25.20
2022-12-26T00:46:56.174Z,28.57
2022-12-26T00:49:24.827Z,26.00
2022-12-26T00:51:53.457Z,33.17
2022-12-26T00:54:22.211Z,30.33
2022-12-26T00:56:50.918Z,32.13
2022-12-26T00:59:21.272Z,27.70
2022-12-26T01:01:50.456Z,25.93
2022-12-26T01:04:19.623Z,27.30
2022-12-26T01:06:49.295Z,26.13
2022-12-26T01:09:18.184Z,28.00
2022-12-26T01:11:46.989Z,33.63
2022-12-26T01:14:18.871Z,34.33
2022-12-26T01:16:49.829Z,36.50
2022-12-26T01:19:18.182Z,30.73
2022-12-26T01:21:46.453Z,28.10
2022-12-26T01:24:14.969Z,27.67
2022-12-26T01:26:43.641Z,27.30
2022-12-26T01:29:12.266Z,26.53
2022-12-26T01:31:40.933Z,26.10
2022-12-26T01:34:12.417Z,28.47
2022-12-26T01:36:40.694Z,21.50
2022-12-26T01:39:10.124Z,22.00
2022-12-26T01:41:39.077Z,20.23
2022-12-26T01:44:47.134Z,22.00
2022-12-26T01:47:16.088Z,20.93
2022-12-26T01:49:52.040Z,19.37
2022-12-26T01:52:30.941Z,18.57
2022-12-26T01:55:01.669Z,20.10
2022-12-26T01:57:36.234Z,19.00
2022-12-26T02:00:07.402Z,21.27
2022-12-26T02:02:57.995Z,20.30
2022-12-26T02:05:36.946Z,22.57
2022-12-26T02:08:10.850Z,21.73
2022-12-26T02:10:48.523Z,21.43
2022-12-26T02:13:19.691Z,20.07
2022-12-26T02:15:49.733Z,21.83
2022-12-26T02:18:18.467Z,22.87
2022-12-26T02:21:00.319Z,21.30
2022-12-26T02:24:16.583Z,22.93
2022-12-26T02:27:14.559Z,20.33
2022-12-26T02:30:08.637Z,20.40
2022-12-26T02:33:02.217Z,21.87
2022-12-26T02:35:58.331Z,20.53
2022-12-26T02:38:36.460Z,18.47
2022-12-26T02:41:25.370Z,18.17
2022-12-26T02:44:25.396Z,19.30
2022-12-26T02:47:08.493Z,18.63
2022-12-26T02:50:17.297Z,19.60
2022-12-26T02:53:19.342Z,19.73
2022-12-26T02:56:11.524Z,18.40
2022-12-26T02:59:11.674Z,17.67
2022-12-26T03:02:05.172Z,19.43
2022-12-26T03:04:57.378Z,17.27
2022-12-26T03:07:50.052Z,20.97
2022-12-26T03:10:42.953Z,15.37
2022-12-26T03:13:23.618Z,18.90
2022-12-26T03:16:15.263Z,14.70
2022-12-26T03:18:59.989Z,15.87
2022-12-26T03:21:36.799Z,14.60
2022-12-26T03:24:10.826Z,14.57
2022-12-26T03:26:47.677Z,13.80
2022-12-26T03:29:36.919Z,14.70
2022-12-26T03:32:08.749Z,14.17
2022-12-26T03:34:43.220Z,12.17
2022-12-26T03:37:50.170Z,15.07
2022-12-26T03:40:57.271Z,12.70
2022-12-26T03:44:13.049Z,13.90
2022-12-26T03:47:19.985Z,12.83
2022-12-26T03:50:12.857Z,11.40
2022-12-26T03:53:09.153Z,11.57
2022-12-26T03:56:08.685Z,12.03
2022-12-26T03:59:03.368Z,14.63
2022-12-26T04:01:53.751Z,12.10
2022-12-26T04:04:42.010Z,18.67
2022-12-26T04:07:34.865Z,13.33
2022-12-26T04:10:31.271Z,12.63
2022-12-26T04:13:22.401Z,11.77
2022-12-26T04:16:18.670Z,12.60
2022-12-26T04:19:12.047Z,12.90
2022-12-26T04:22:03.805Z,13.60
2022-12-26T04:24:58.955Z,14.43
2022-12-26T04:27:47.997Z,12.47
2022-12-26T04:30:38.302Z,12.20
2022-12-26T04:33:37.758Z,12.80
2022-12-26T04:36:30.209Z,13.57
2022-12-26T04:39:22.826Z,12.17
2022-12-26T04:42:11.348Z,12.67
2022-12-26T04:44:42.826Z,12.73
2022-12-26T04:47:12.484Z,11.27
2022-12-26T04:50:04.789Z,10.17
2022-12-26T04:52:47.754Z,10.67
2022-12-26T04:55:16.627Z,12.30
2022-12-26T04:57:45.510Z,16.77
2022-12-26T05:00:15.495Z,14.23
2022-12-26T05:03:01.930Z,12.83
2022-12-26T05:06:08.479Z,12.53
2022-12-26T05:08:57.697Z,12.83
2022-12-26T05:11:27.387Z,13.20
2022-12-26T05:13:58.304Z,14.53
2022-12-26T05:16:46.826Z,13.60
2022-12-26T05:19:36.152Z,12.23
2022-12-26T05:22:24.128Z,12.93
2022-12-26T05:25:10.918Z,12.97
2022-12-26T05:28:01.292Z,13.90
2022-12-26T05:30:29.955Z,12.53
2022-12-26T05:33:15.934Z,13.47
2022-12-26T05:35:44.609Z,12.83
2022-12-26T05:38:14.346Z,12.57
2022-12-26T05:40:42.912Z,10.77
2022-12-26T05:43:11.174Z,15.13
2022-12-26T05:45:39.401Z,10.60
2022-12-26T05:48:08.712Z,10.23
2022-12-26T05:50:37.023Z,10.37
2022-12-26T05:53:05.352Z,10.93
2022-12-26T05:55:35.327Z,10.53
2022-12-26T05:58:04.389Z,10.63
2022-12-26T06:00:33.356Z,10.43
2022-12-26T06:03:02.538Z,10.27
2022-12-26T06:05:30.990Z,11.33
2022-12-26T06:07:59.510Z,10.87
2022-12-26T06:10:29.623Z,10.13
2022-12-26T06:13:01.584Z,9.40
2022-12-26T06:15:29.864Z,12.10
2022-12-26T06:17:58.651Z,11.23
2022-12-26T06:20:28.141Z,10.77
2022-12-26T06:22:57.188Z,10.00
2022-12-26T06:25:26.129Z,10.47
2022-12-26T06:27:55.000Z,11.63
2022-12-26T06:30:24.626Z,13.30
2022-12-26T06:32:55.086Z,15.23
2022-12-26T06:35:23.616Z,10.63
2022-12-26T06:37:51.867Z,13.57
2022-12-26T06:43:10.223Z,11.97
2022-12-26T06:45:40.887Z,9.23
2022-12-26T06:48:09.134Z,9.93
2022-12-26T06:50:37.927Z,10.23
2022-12-26T06:53:06.285Z,10.10
2022-12-26T06:55:34.853Z,10.83
2022-12-26T06:58:03.479Z,9.77
2022-12-26T07:00:31.808Z,11.13
2022-12-26T07:03:01.651Z,11.57
2022-12-26T07:05:30.012Z,11.60
2022-12-26T07:07:58.669Z,10.07
2022-12-26T07:10:27.240Z,10.47
2022-12-26T07:12:55.562Z,15.87
2022-12-26T07:15:24.117Z,11.70
2022-12-26T07:17:53.917Z,11.03
2022-12-26T07:20:23.609Z,11.30
2022-12-26T07:22:52.191Z,11.70
2022-12-26T07:25:20.801Z,12.20
2022-12-26T07:27:49.384Z,9.73
2022-12-26T07:30:17.901Z,10.67
2022-12-26T07:32:46.475Z,11.20
2022-12-26T07:35:15.083Z,10.43
2022-12-26T07:37:44.687Z,10.47
2022-12-26T07:40:14.255Z,12.47
2022-12-26T07:42:42.812Z,12.30
2022-12-26T07:45:11.799Z,11.23
2022-12-26T07:47:40.393Z,11.00
2022-12-26T07:50:10.103Z,12.40
2022-12-26T07:52:38.710Z,19.03
2022-12-26T07:55:09.615Z,19.90
2022-12-26T07:57:48.627Z,15.67
2022-12-26T08:00:19.037Z,13.87
2022-12-26T08:02:50.045Z,11.17
2022-12-26T08:05:20.867Z,12.47
2022-12-26T08:07:49.646Z,15.03
2022-12-26T08:10:19.676Z,14.97
2022-12-26T08:12:47.933Z,16.70
2022-12-26T08:15:16.723Z,16.53
2022-12-26T08:17:45.002Z,15.17
2022-12-26T08:20:13.919Z,23.73
2022-12-26T08:22:42.199Z,34.40
2022-12-26T08:25:13.370Z,25.93
2022-12-26T08:27:46.732Z,19.23
2022-12-26T08:30:15.765Z,18.97
2022-12-26T08:32:46.280Z,18.53
2022-12-26T08:35:15.006Z,19.30
2022-12-26T08:37:44.193Z,19.53
2022-12-26T08:40:15.652Z,23.40
2022-12-26T08:43:11.677Z,19.57
2022-12-26T08:45:36.822Z,17.83
2022-12-26T08:48:05.424Z,18.80
2022-12-26T08:50:37.888Z,24.57
2022-12-26T08:53:09.151Z,22.00
2022-12-26T08:55:37.385Z,17.73
2022-12-26T08:58:07.203Z,19.03
2022-12-26T09:00:35.518Z,20.57
2022-12-26T09:03:03.831Z,20.37
2022-12-26T09:05:33.043Z,19.77
2022-12-26T09:08:01.638Z,17.50
2022-12-26T09:10:29.910Z,19.67
2022-12-26T09:12:58.494Z,18.83
2022-12-26T09:15:28.379Z,20.27
2022-12-26T09:17:56.988Z,20.50
2022-12-26T09:20:25.356Z,26.03
2022-12-26T09:22:54.453Z,19.77
2022-12-26T09:25:26.787Z,19.47
2022-12-26T09:27:59.048Z,17.60
2022-12-26T09:30:29.134Z,17.43
2022-12-26T09:32:57.388Z,16.87
2022-12-26T09:35:25.653Z,18.50
2022-12-26T09:37:54.236Z,18.20
2022-12-26T09:40:29.519Z,17.70
2022-12-26T09:43:19.204Z,20.13
2022-12-26T09:46:07.097Z,18.07
2022-12-26T09:48:47.017Z,15.17
2022-12-26T09:51:15.420Z,15.97
2022-12-26T09:53:47.863Z,14.13
2022-12-26T09:57:01.079Z,14.20
2022-12-26T09:59:17.637Z,16.17
2022-12-26T10:01:49.108Z,15.03
2022-12-26T10:04:29.536Z,18.87
2022-12-26T10:07:11.612Z,16.87
2022-12-26T10:10:03.143Z,15.33
2022-12-26T10:12:46.755Z,15.17
2022-12-26T10:15:32.431Z,14.67
2022-12-26T10:18:33.513Z,16.87
2022-12-26T10:21:36.044Z,15.27
2022-12-26T10:24:13.673Z,18.60
2022-12-26T10:26:46.428Z,17.67
2022-12-26T10:29:23.099Z,16.47
2022-12-26T10:31:59.464Z,16.93
2022-12-26T10:34:35.481Z,18.23
2022-12-26T10:37:14.312Z,20.20
2022-12-26T10:39:52.225Z,17.93
2022-12-26T10:42:28.905Z,20.27
2022-12-26T10:44:58.283Z,22.47
2022-12-26T10:47:29.768Z,16.60
2022-12-26T10:49:59.803Z,22.07
2022-12-26T10:52:34.841Z,19.33
2022-12-26T10:55:28.082Z,19.10
2022-12-26T10:57:54.884Z,20.07
2022-12-26T11:00:25.582Z,21.33
2022-12-26T11:03:09.200Z,20.03
2022-12-26T11:08:43.010Z,24.03
2022-12-26T11:11:20.935Z,25.77
2022-12-26T11:14:01.312Z,21.50
2022-12-26T11:16:34.795Z,23.47
2022-12-26T11:19:03.536Z,21.47
2022-12-26T11:21:34.538Z,23.67
2022-12-26T11:24:20.502Z,23.90
2022-12-26T11:26:49.847Z,21.07
2022-12-26T11:29:20.928Z,23.93
2022-12-26T11:31:57.520Z,25.23
2022-12-26T11:34:34.855Z,22.90
2022-12-26T11:37:07.810Z,22.53
2022-12-26T11:39:39.225Z,24.20
2022-12-26T11:42:12.055Z,22.63
2022-12-26T11:44:45.446Z,25.57
2022-12-26T11:47:17.000Z,21.33
2022-12-26T11:49:55.230Z,21.73
2022-12-26T11:52:40.123Z,19.80
2022-12-26T11:55:33.855Z,25.23
2022-12-26T11:58:16.160Z,22.83
2022-12-26T12:01:08.592Z,24.60
2022-12-26T12:03:48.810Z,23.13
2022-12-26T12:06:46.321Z,22.00
2022-12-26T12:09:26.862Z,21.30
2022-12-26T12:12:02.767Z,22.93
2022-12-26T12:14:50.878Z,22.40
2022-12-26T12:17:29.436Z,24.13
2022-12-26T12:20:30.480Z,24.33
2022-12-26T12:23:26.049Z,25.87
2022-12-26T12:26:11.193Z,22.97
2022-12-26T12:29:09.373Z,24.03
2022-12-26T12:31:57.582Z,23.93
2022-12-26T12:34:53.208Z,24.40
2022-12-26T12:37:37.663Z,27.57
2022-12-26T12:40:30.285Z,27.83
2022-12-26T12:43:16.057Z,27.10
2022-12-26T12:45:57.342Z,24.83
2022-12-26T12:48:47.943Z,27.00
2022-12-26T12:51:34.379Z,24.33
2022-12-26T12:54:42.482Z,22.20
2022-12-26T12:57:23.086Z,18.40
2022-12-26T13:00:04.651Z,17.67
2022-12-26T13:02:42.153Z,22.67
2022-12-26T13:05:23.583Z,23.17
2022-12-26T13:08:05.672Z,19.50
2022-12-26T13:10:43.163Z,18.90
2022-12-26T13:13:18.557Z,22.30
2022-12-26T13:15:56.157Z,22.00
2022-12-26T13:18:30.856Z,21.43
2022-12-26T13:21:06.743Z,21.80
2022-12-26T13:24:14.277Z,24.23
2022-12-26T13:26:48.403Z,21.03
2022-12-26T13:29:25.894Z,19.70
2022-12-26T13:32:00.559Z,21.43
2022-12-26T13:34:29.425Z,19.13
2022-12-26T13:36:59.934Z,19.77
2022-12-26T13:39:41.614Z,22.63
2022-12-26T13:42:47.937Z,17.20
2022-12-26T13:45:59.448Z,18.27
2022-12-26T13:48:59.912Z,19.77
2022-12-26T13:51:50.123Z,18.67
2022-12-26T13:54:20.833Z,18.20
2022-12-26T13:57:35.846Z,20.90
2022-12-26T14:00:24.189Z,21.97
2022-12-26T14:03:21.594Z,19.73
2022-12-26T14:06:24.685Z,20.33
2022-12-26T14:09:17.782Z,21.03
2022-12-26T14:12:22.273Z,25.00
2022-12-26T14:15:24.360Z,19.07
2022-12-26T14:18:08.605Z,17.67
2022-12-26T14:20:45.868Z,23.67
2022-12-26T14:23:39.781Z,18.30
2022-12-26T14:26:22.404Z,16.83
2022-12-26T14:29:06.049Z,16.60
2022-12-26T14:31:45.600Z,25.53
2022-12-26T14:34:26.095Z,18.00
2022-12-26T14:37:01.716Z,20.53
2022-12-26T14:39:42.439Z,19.70
2022-12-26T14:42:38.923Z,17.53
2022-12-26T14:45:33.608Z,17.20
2022-12-26T14:48:02.671Z,17.70
2022-12-26T14:50:46.254Z,16.93
2022-12-26T14:53:34.838Z,16.07
2022-12-26T14:56:35.531Z,16.90
2022-12-26T14:59:27.874Z,21.27
2022-12-26T15:02:11.318Z,19.07
2022-12-26T15:05:11.755Z,18.90
2022-12-26T15:08:10.978Z,20.80
2022-12-26T15:11:30.524Z,21.40
2022-12-26T15:14:37.070Z,19.87
2022-12-26T15:17:19.779Z,18.53
2022-12-26T15:21:01.331Z,20.03
2022-12-26T15:24:52.443Z,20.93
2022-12-26T15:27:46.108Z,23.03
2022-12-26T15:30:23.729Z,23.03
2022-12-26T15:33:04.245Z,21.23
2022-12-26T15:35:38.842Z,19.60
2022-12-26T15:38:30.050Z,18.07
2022-12-26T15:41:29.965Z,16.37
2022-12-26T15:44:18.953Z,18.13
2022-12-26T15:47:06.597Z,19.57
2022-12-26T15:49:57.794Z,14.60
2022-12-26T15:52:44.689Z,15.37
2022-12-26T15:55:52.213Z,16.40
2022-12-26T15:58:46.887Z,16.00
2022-12-26T16:01:36.169Z,17.13
2022-12-26T16:04:13.849Z,21.93
2022-12-26T16:07:08.049Z,18.77
2022-12-26T16:09:43.544Z,18.10
2022-12-26T16:12:26.052Z,15.00
2022-12-26T16:15:17.967Z,13.57
2022-12-26T16:17:48.920Z,10.83
2022-12-26T16:20:49.874Z,11.10
2022-12-26T16:23:23.375Z,10.30
2022-12-26T16:25:55.147Z,8.40
2022-12-26T16:28:30.046Z,11.60
2022-12-26T16:31:00.846Z,10.57
2022-12-26T16:33:32.781Z,9.63
2022-12-26T16:36:02.747Z,10.50
2022-12-26T16:38:33.691Z,11.33
2022-12-26T16:44:30.543Z,8.00
2022-12-26T16:47:03.573Z,7.77
2022-12-26T16:49:33.668Z,8.27
2022-12-26T16:52:03.943Z,9.40
2022-12-26T16:54:39.738Z,7.87
2022-12-26T16:57:16.617Z,9.20
2022-12-26T16:59:52.478Z,7.10
2022-12-26T17:02:26.380Z,9.60
2022-12-26T17:05:01.280Z,8.13
2022-12-26T17:07:32.339Z,8.37
2022-12-26T17:10:02.428Z,7.60
2022-12-26T17:12:36.854Z,9.70
2022-12-26T17:15:08.566Z,8.13
2022-12-26T17:17:38.338Z,8.13
2022-12-26T17:20:39.159Z,6.87
2022-12-26T17:23:36.315Z,6.20
2022-12-26T17:26:21.380Z,7.47
2022-12-26T17:28:50.012Z,7.33
2022-12-26T17:31:34.696Z,6.03
2022-12-26T17:34:09.556Z,5.17
2022-12-26T17:37:17.356Z,4.90
2022-12-26T17:39:28.663Z,8.23
2022-12-26T17:42:00.350Z,10.03
2022-12-26T17:44:37.888Z,7.87
2022-12-26T17:47:19.590Z,8.30
2022-12-26T17:49:49.787Z,9.37
2022-12-26T17:52:20.912Z,7.23
2022-12-26T17:54:52.456Z,4.97
2022-12-26T17:57:23.847Z,10.60
2022-12-26T17:59:54.961Z,6.33
2022-12-26T18:02:23.681Z,5.50
2022-12-26T18:04:52.449Z,7.23
2022-12-26T18:07:31.041Z,6.87
2022-12-26T18:10:02.838Z,7.27
2022-12-26T18:12:31.340Z,6.67
2022-12-26T18:15:02.340Z,5.70
2022-12-26T18:17:34.424Z,8.27
2022-12-26T18:20:03.283Z,6.73
2022-12-26T18:22:32.512Z,8.47
2022-12-26T18:25:02.162Z,4.70
2022-12-26T18:27:33.803Z,8.23
2022-12-26T18:30:03.120Z,4.73
2022-12-26T18:32:34.036Z,5.97
2022-12-26T18:35:02.739Z,4.33
2022-12-26T18:37:32.024Z,4.70
2022-12-26T18:40:02.422Z,6.33
2022-12-26T18:42:30.962Z,6.97
2022-12-26T18:44:59.612Z,5.20
2022-12-26T18:47:27.853Z,5.07
2022-12-26T18:49:56.130Z,4.37
2022-12-26T18:52:24.389Z,6.27
2022-12-26T18:54:53.003Z,4.97
2022-12-26T18:57:22.626Z,3.90
2022-12-26T18:59:51.269Z,4.10
2022-12-26T19:02:21.110Z,3.83
2022-12-26T19:04:50.929Z,6.50
2022-12-26T19:07:21.142Z,5.53
2022-12-26T19:09:54.921Z,3.83
2022-12-26T19:12:25.749Z,3.93
2022-12-26T19:14:54.544Z,4.50
2022-12-26T19:17:23.160Z,3.50
2022-12-26T19:19:51.530Z,5.03
2022-12-26T19:22:20.157Z,6.47
2022-12-26T19:24:48.763Z,5.07
2022-12-26T19:27:17.440Z,4.87
2022-12-26T19:29:47.100Z,4.20
2022-12-26T19:32:15.451Z,3.17
2022-12-26T19:34:44.012Z,5.87
2022-12-26T19:37:12.239Z,5.40
2022-12-26T19:39:40.494Z,4.37
2022-12-26T19:42:08.747Z,8.07
2022-12-26T19:44:37.015Z,4.07
2022-12-26T19:47:11.415Z,5.70
2022-12-26T19:49:41.661Z,5.37
2022-12-26T19:52:11.660Z,6.17
2022-12-26T19:54:40.332Z,4.97
2022-12-26T19:57:08.786Z,5.17
2022-12-26T19:59:37.518Z,9.43
2022-12-26T20:02:07.243Z,5.57
2022-12-26T20:04:36.293Z,4.97
2022-12-26T20:07:04.591Z,5.10
2022-12-26T20:09:33.167Z,4.87
2022-12-26T20:12:01.591Z,5.47
2022-12-26T20:14:32.362Z,7.17
2022-12-26T20:17:06.567Z,3.20
2022-12-26T20:19:40.226Z,4.20
2022-12-26T20:22:08.929Z,5.20
2022-12-26T20:24:37.531Z,3.50
2022-12-26T20:27:05.900Z,4.07
2022-12-26T20:29:34.351Z,3.47
2022-12-26T20:32:02.586Z,3.77
2022-12-26T20:34:30.943Z,2.10
2022-12-26T20:37:00.633Z,2.83
2022-12-26T20:39:28.993Z,2.53
2022-12-26T20:41:57.310Z,2.83
2022-12-26T20:44:25.673Z,1.33
2022-12-26T20:46:54.339Z,2.20
2022-12-26T20:49:22.977Z,1.30
2022-12-26T20:51:51.306Z,1.00
2022-12-26T20:54:21.240Z,1.90
2022-12-26T20:56:49.515Z,2.30
2022-12-26T20:59:18.560Z,1.30
2022-12-26T21:01:47.402Z,1.50
2022-12-26T21:04:21.152Z,2.00
2022-12-26T21:06:50.412Z,3.47
2022-12-26T21:09:20.598Z,0.97
2022-12-26T21:11:48.948Z,1.00
2022-12-26T21:14:20.561Z,1.37
2022-12-26T21:16:51.013Z,1.40
2022-12-26T21:19:21.069Z,1.10
2022-12-26T21:21:54.927Z,1.77
2022-12-26T21:24:27.795Z,1.87
2022-12-26T21:26:56.628Z,1.47
2022-12-26T21:29:28.974Z,2.10
2022-12-26T21:31:58.370Z,1.50
2022-12-26T21:34:30.566Z,2.90
2022-12-26T21:37:16.900Z,3.00
2022-12-26T21:39:47.467Z,1.40
2022-12-26T21:42:16.449Z,1.83
2022-12-26T21:44:45.222Z,1.83
2022-12-26T21:47:13.892Z,1.20
2022-12-26T21:49:42.254Z,1.33
2022-12-26T21:52:12.684Z,3.70
2022-12-26T21:54:58.660Z,1.27
2022-12-26T21:57:28.292Z,2.03
2022-12-26T21:59:59.836Z,1.47
2022-12-26T22:02:49.103Z,1.40
2022-12-26T22:05:18.812Z,2.20
2022-12-26T22:07:48.098Z,1.67
2022-12-26T22:10:30.993Z,1.80
2022-12-26T22:13:01.187Z,2.50
2022-12-26T22:15:47.043Z,1.30
2022-12-26T22:18:15.698Z,1.70
2022-12-26T22:20:44.885Z,0.90
2022-12-26T22:23:14.606Z,1.97
2022-12-26T22:25:43.261Z,1.90
2022-12-26T22:28:13.049Z,2.17
2022-12-26T22:30:48.660Z,1.87
2022-12-26T22:33:17.743Z,1.40
2022-12-26T22:35:46.661Z,1.47
2022-12-26T22:38:15.479Z,2.30
2022-12-26T22:40:52.689Z,2.00
2022-12-26T22:43:22.776Z,2.00
2022-12-26T22:45:51.109Z,2.43
2022-12-26T22:48:20.488Z,1.20
2022-12-26T22:50:52.658Z,1.93
2022-12-26T22:53:23.674Z,1.20
2022-12-26T22:55:56.966Z,2.13
2022-12-26T22:58:27.693Z,0.80
2022-12-26T23:00:56.708Z,2.33
2022-12-26T23:03:27.090Z,3.40
2022-12-26T23:05:56.810Z,1.03
2022-12-26T23:08:28.295Z,4.27
2022-12-26T23:10:59.570Z,0.70
2022-12-26T23:13:30.078Z,2.27
2022-12-26T23:16:05.891Z,0.77
2022-12-26T23:18:57.587Z,2.40
2022-12-26T23:21:50.133Z,2.43
2022-12-26T23:24:26.077Z,2.73
2022-12-26T23:27:17.508Z,2.57
2022-12-26T23:30:05.079Z,1.43
2022-12-26T23:32:34.025Z,4.30
2022-12-26T23:35:02.645Z,2.80
2022-12-26T23:37:31.341Z,1.80
2022-12-26T23:39:59.817Z,3.00
2022-12-26T23:42:28.420Z,4.27
2022-12-26T23:44:58.106Z,1.83
2022-12-26T23:47:26.487Z,3.33
2022-12-26T23:49:55.197Z,1.17
2022-12-26T23:52:29.863Z,1.33
2022-12-26T23:54:58.954Z,1.90
2022-12-26T23:57:27.687Z,1.90
2022-12-26T23:59:57.654Z,1.63
